createdAt,value
2019-05-03T00:00:12.588Z,94202.20
2019-05-03T00:02:52.254Z,94197.25
2019-05-03T00:05:32.323Z,94194.34
2019-05-03T00:08:03.483Z,94194.66
2019-05-03T00:10:32.132Z,94198.18
2019-05-03T00:13:01.946Z,94195.16
2019-05-03T00:15:43.261Z,94198.00
2019-05-03T00:18:11.868Z,94198.44
2019-05-03T00:20:42.023Z,94199.41
2019-05-03T00:23:12.113Z,94199.41
2019-05-03T00:25:41.869Z,94201.25
2019-05-03T00:28:10.750Z,94201.25
2019-05-03T00:30:39.349Z,94200.74
2019-05-03T00:33:08.020Z,94198.66
2019-05-03T00:35:58.845Z,94208.97
2019-05-03T00:38:27.461Z,94202.06
2019-05-03T00:40:56.128Z,94205.59
2019-05-03T00:43:24.756Z,94205.90
2019-05-03T00:45:53.348Z,94205.06
2019-05-03T00:48:22.233Z,94218.34
2019-05-03T00:50:51.785Z,94218.34
2019-05-03T00:53:22.229Z,94204.73
2019-05-03T00:55:52.525Z,94213.48
2019-05-03T00:58:22.431Z,94214.16
2019-05-03T01:00:52.497Z,94217.14
2019-05-03T01:03:21.912Z,94214.69
2019-05-03T01:05:52.734Z,94215.56
2019-05-03T01:08:22.065Z,94219.58
2019-05-03T01:10:51.662Z,94226.53
2019-05-03T01:13:21.894Z,94223.03
2019-05-03T01:16:02.869Z,94222.94
2019-05-03T01:18:32.393Z,94228.59
2019-05-03T01:21:02.304Z,94240.59
2019-05-03T01:23:32.598Z,94233.98
2019-05-03T01:26:02.455Z,94235.94
2019-05-03T01:28:32.357Z,94245.52
2019-05-03T01:31:02.550Z,94241.03
2019-05-03T01:33:32.180Z,94240.34
2019-05-03T01:36:02.719Z,94239.84
2019-05-03T01:38:32.114Z,94249.00
2019-05-03T01:41:01.720Z,94238.77
2019-05-03T01:43:31.710Z,94238.80
2019-05-03T01:46:02.538Z,94239.33
2019-05-03T01:48:55.580Z,94238.54
2019-05-03T01:51:42.086Z,94237.77
2019-05-03T01:54:12.278Z,94238.98
2019-05-03T01:56:49.954Z,94234.53
2019-05-03T01:59:12.322Z,94237.80
2019-05-03T02:01:48.210Z,94241.94
2019-05-03T02:04:23.817Z,94238.69
2019-05-03T02:06:52.472Z,94243.89
2019-05-03T02:09:21.718Z,94247.28
2019-05-03T02:11:52.504Z,94247.33
2019-05-03T02:14:22.183Z,94249.56
2019-05-03T02:16:52.317Z,94249.06
2019-05-03T02:19:22.033Z,94244.33
2019-05-03T02:21:52.373Z,94257.25
2019-05-03T02:24:22.172Z,94244.54
2019-05-03T02:26:52.816Z,94259.25
2019-05-03T02:29:21.925Z,94256.50
2019-05-03T02:31:53.405Z,94266.72
2019-05-03T02:34:23.913Z,94267.53
2019-05-03T02:36:53.824Z,94263.08
2019-05-03T02:39:22.832Z,94263.38
2019-05-03T02:41:58.602Z,94267.96
2019-05-03T02:44:26.549Z,94261.09
2019-05-03T02:47:16.026Z,94268.18
2019-05-03T02:49:58.046Z,94267.27
2019-05-03T02:52:37.067Z,94266.28
2019-05-03T02:55:08.029Z,94257.88
2019-05-03T02:57:36.666Z,94268.96
2019-05-03T03:02:45.422Z,94266.88
2019-05-03T03:05:16.309Z,94264.08
2019-05-03T03:07:46.044Z,94267.17
2019-05-03T03:10:17.134Z,94262.16
2019-05-03T03:12:46.570Z,94262.03
2019-05-03T03:15:16.191Z,94271.81
2019-05-03T03:17:45.870Z,94269.70
2019-05-03T03:20:16.648Z,94266.03
2019-05-03T03:22:45.824Z,94279.16
2019-05-03T03:25:19.676Z,94269.87
2019-05-03T03:27:50.050Z,94267.11
2019-05-03T03:30:38.814Z,94267.82
2019-05-03T03:33:10.657Z,94268.59
2019-05-03T03:35:42.191Z,94268.95
2019-05-03T03:38:10.867Z,94278.47
2019-05-03T03:40:40.088Z,94274.08
2019-05-03T03:43:10.183Z,94280.57
2019-05-03T03:45:39.506Z,94281.03
2019-05-03T03:48:08.678Z,94280.11
2019-05-03T03:50:37.711Z,94286.98
2019-05-03T03:53:06.860Z,94281.69
2019-05-03T03:55:36.624Z,94280.56
2019-05-03T03:58:06.555Z,94283.68
2019-05-03T04:00:36.165Z,94286.47
2019-05-03T04:03:05.976Z,94290.34
2019-05-03T04:05:35.900Z,94291.20
2019-05-03T04:08:05.647Z,94290.05
2019-05-03T04:10:35.269Z,94293.02
2019-05-03T04:13:05.685Z,94293.57
2019-05-03T04:15:51.877Z,94290.41
2019-05-03T04:18:49.071Z,94292.84
2019-05-03T04:21:17.737Z,94297.27
2019-05-03T04:23:46.452Z,94303.66
2019-05-03T04:26:16.228Z,94304.58
2019-05-03T04:28:45.498Z,94305.63
2019-05-03T04:31:15.221Z,94312.39
2019-05-03T04:33:45.033Z,94313.40
2019-05-03T04:36:16.013Z,94316.54
2019-05-03T04:38:45.599Z,94329.13
2019-05-03T04:41:15.886Z,94324.00
2019-05-03T04:43:45.965Z,94334.00
2019-05-03T04:46:20.848Z,94338.02
2019-05-03T04:48:49.576Z,94342.28
2019-05-03T04:51:18.172Z,94347.63
2019-05-03T04:53:55.725Z,94353.79
2019-05-03T04:56:25.968Z,94355.55
2019-05-03T04:58:55.963Z,94360.30
2019-05-03T05:01:26.097Z,94357.25
2019-05-03T05:03:55.888Z,94362.08
2019-05-03T05:06:25.830Z,94364.62
2019-05-03T05:08:55.155Z,94367.45
2019-05-03T05:11:26.275Z,94374.23
2019-05-03T05:13:56.007Z,94375.89
2019-05-03T05:16:25.363Z,94380.40
2019-05-03T05:18:58.256Z,94382.81
2019-05-03T05:21:31.374Z,94390.16
2019-05-03T05:24:05.506Z,94386.80
2019-05-03T05:26:48.928Z,94394.62
2019-05-03T05:29:19.636Z,94390.47
2019-05-03T05:31:48.241Z,94395.80
2019-05-03T05:34:16.852Z,94395.26
2019-05-03T05:36:45.887Z,94392.20
2019-05-03T05:39:18.784Z,94395.70
2019-05-03T05:41:47.950Z,94398.20
2019-05-03T05:44:16.794Z,94400.74
2019-05-03T05:46:54.308Z,94399.91
2019-05-03T05:50:00.276Z,94408.20
2019-05-03T05:52:28.881Z,94410.40
2019-05-03T05:55:06.082Z,94412.82
2019-05-03T05:58:04.728Z,94409.94
2019-05-03T06:00:40.344Z,94415.86
2019-05-03T06:03:09.456Z,94408.67
2019-05-03T06:05:39.504Z,94417.62
2019-05-03T06:08:26.126Z,94413.20
2019-05-03T06:11:14.764Z,94417.59
2019-05-03T06:13:50.649Z,94412.27
2019-05-03T06:16:38.697Z,94421.38
2019-05-03T06:19:17.177Z,94424.80
2019-05-03T06:22:23.048Z,94429.31
2019-05-03T06:24:57.448Z,94429.30
2019-05-03T06:27:30.864Z,94436.44
2019-05-03T06:30:04.690Z,94434.77
2019-05-03T06:32:35.964Z,94434.16
2019-05-03T06:35:05.025Z,94438.93
2019-05-03T06:37:38.913Z,94436.37
2019-05-03T06:40:07.686Z,94432.89
2019-05-03T06:42:36.293Z,94437.10
2019-05-03T06:45:10.425Z,94442.06
2019-05-03T06:47:40.308Z,94432.83
2019-05-03T06:50:06.598Z,94433.69
2019-05-03T06:52:35.252Z,94432.52
2019-05-03T06:55:06.520Z,94438.27
2019-05-03T06:57:35.456Z,94437.13
2019-05-03T07:00:21.804Z,94439.42
2019-05-03T07:02:56.046Z,94437.45
2019-05-03T07:05:49.581Z,94440.34
2019-05-03T07:08:36.006Z,94442.89
2019-05-03T07:11:05.359Z,94451.09
2019-05-03T07:13:34.572Z,94448.69
2019-05-03T07:16:04.698Z,94446.06
2019-05-03T07:18:35.199Z,94453.68
2019-05-03T07:21:04.846Z,94448.50
2019-05-03T07:23:34.927Z,94453.14
2019-05-03T07:26:05.379Z,94449.61
2019-05-03T07:28:46.453Z,94458.18
2019-05-03T07:31:04.878Z,94459.39
2019-05-03T07:33:34.849Z,94460.79
2019-05-03T07:36:05.326Z,94456.86
2019-05-03T07:38:34.993Z,94453.10
2019-05-03T07:41:05.330Z,94453.10
2019-05-03T07:43:35.884Z,94454.02
2019-05-03T07:46:05.598Z,94454.02
2019-05-03T07:48:35.361Z,94455.52
2019-05-03T07:51:05.544Z,94448.38
2019-05-03T07:53:34.886Z,94445.61
2019-05-03T07:56:08.384Z,94445.61
2019-05-03T07:58:37.596Z,94450.09
2019-05-03T08:01:10.191Z,94448.09
2019-05-03T08:03:38.821Z,94448.39
2019-05-03T08:06:07.704Z,94455.85
2019-05-03T08:08:36.294Z,94275.97
2019-05-03T08:11:05.373Z,94448.33
2019-05-03T08:13:35.539Z,94459.03
2019-05-03T08:16:05.926Z,94462.18
2019-05-03T08:18:35.466Z,94461.56
2019-05-03T08:21:05.545Z,94464.16
2019-05-03T08:23:35.393Z,94464.16
2019-05-03T08:26:05.821Z,94467.50
2019-05-03T08:28:35.185Z,94467.56
2019-05-03T08:31:14.998Z,94467.11
2019-05-03T08:33:50.867Z,94471.41
2019-05-03T08:36:19.648Z,94467.11
2019-05-03T08:38:48.501Z,94470.30
2019-05-03T08:41:19.233Z,94470.30
2019-05-03T08:43:48.172Z,94456.16
2019-05-03T08:46:16.769Z,94458.52
2019-05-03T08:48:45.709Z,94460.27
2019-05-03T08:51:14.943Z,94458.59
2019-05-03T08:53:45.829Z,94459.23
2019-05-03T08:56:15.627Z,94459.09
2019-05-03T08:58:45.095Z,94463.98
2019-05-03T09:01:14.777Z,94462.05
2019-05-03T09:03:45.712Z,94462.42
2019-05-03T09:06:15.452Z,94452.75
2019-05-03T09:08:45.771Z,94455.72
2019-05-03T09:11:15.671Z,94457.11
2019-05-03T09:13:55.798Z,94450.63
2019-05-03T09:16:25.148Z,94450.58
2019-05-03T09:18:54.928Z,94460.97
2019-05-03T09:21:25.486Z,94462.16
2019-05-03T09:23:55.381Z,94464.84
2019-05-03T09:26:28.841Z,94466.09
2019-05-03T09:28:55.609Z,94465.14
2019-05-03T09:31:24.756Z,94462.00
2019-05-03T09:33:54.824Z,94459.49
2019-05-03T09:36:25.301Z,94459.49
2019-05-03T09:38:54.946Z,94462.92
2019-05-03T09:41:25.669Z,94464.03
2019-05-03T09:43:55.513Z,94453.86
2019-05-03T09:46:26.357Z,94452.77
2019-05-03T09:49:09.424Z,94450.22
2019-05-03T09:51:25.572Z,94447.30
2019-05-03T09:53:59.431Z,94449.59
2019-05-03T09:56:55.031Z,94444.86
2019-05-03T09:59:15.848Z,94455.88
2019-05-03T10:01:45.644Z,94455.88
2019-05-03T10:04:17.778Z,94456.12
2019-05-03T10:06:45.348Z,94447.45
2019-05-03T10:09:15.450Z,94452.33
2019-05-03T10:11:45.932Z,94453.13
2019-05-03T10:14:15.570Z,94450.97
2019-05-03T10:16:51.228Z,94452.86
2019-05-03T10:19:19.827Z,94457.16
2019-05-03T10:21:48.834Z,94462.41
2019-05-03T10:24:17.456Z,94451.38
2019-05-03T10:26:46.116Z,94460.00
2019-05-03T10:29:15.300Z,94452.52
2019-05-03T10:32:03.366Z,94450.36
2019-05-03T10:34:31.990Z,94449.31
2019-05-03T10:37:00.597Z,94441.73
2019-05-03T10:39:29.185Z,94442.91
2019-05-03T10:41:57.876Z,94448.70
2019-05-03T10:44:26.539Z,94439.63
2019-05-03T10:46:55.937Z,94438.80
2019-05-03T10:49:24.682Z,94445.47
2019-05-03T10:51:59.013Z,94453.58
2019-05-03T10:54:27.616Z,94449.01
2019-05-03T10:57:01.859Z,94436.94
2019-05-03T10:59:30.673Z,94448.30
2019-05-03T11:02:18.857Z,94446.95
2019-05-03T11:04:47.485Z,94442.81
2019-05-03T11:07:16.418Z,94437.64
2019-05-03T11:09:49.721Z,94442.09
2019-05-03T11:12:15.800Z,94442.34
2019-05-03T11:14:45.604Z,94433.42
2019-05-03T11:17:14.848Z,94441.83
2019-05-03T11:19:45.429Z,94429.68
2019-05-03T11:22:14.596Z,94439.66
2019-05-03T11:24:45.331Z,94445.08
2019-05-03T11:27:21.310Z,94453.50
2019-05-03T11:29:49.922Z,94443.74
2019-05-03T11:32:26.301Z,94449.47
2019-05-03T11:35:05.996Z,94448.26
2019-05-03T11:37:57.284Z,94438.44
2019-05-03T11:40:26.124Z,94435.19
2019-05-03T11:42:56.641Z,94438.45
2019-05-03T11:45:25.511Z,94441.80
2019-05-03T11:47:55.126Z,94444.41
2019-05-03T11:50:25.382Z,94444.87
2019-05-03T11:52:55.427Z,94440.72
2019-05-03T11:55:26.697Z,94438.30
2019-05-03T11:57:56.645Z,94438.32
2019-05-03T12:00:30.481Z,94439.60
2019-05-03T12:03:09.517Z,94437.02
2019-05-03T12:05:38.438Z,94435.84
2019-05-03T12:08:07.227Z,94429.22
2019-05-03T12:10:52.495Z,94432.55
2019-05-03T12:13:11.884Z,94435.77
2019-05-03T12:15:40.842Z,94427.91
2019-05-03T12:18:10.869Z,94427.27
2019-05-03T12:20:40.746Z,94433.20
2019-05-03T12:23:10.850Z,94442.56
2019-05-03T12:25:40.346Z,94444.54
2019-05-03T12:28:09.423Z,94454.48
2019-05-03T12:30:39.540Z,94442.78
2019-05-03T12:33:08.321Z,94442.43
2019-05-03T12:35:37.163Z,94440.47
2019-05-03T12:38:05.862Z,94439.98
2019-05-03T12:40:34.940Z,94433.32
2019-05-03T12:43:05.971Z,94438.91
2019-05-03T12:45:35.404Z,94447.86
2019-05-03T12:48:04.906Z,94437.72
2019-05-03T12:50:34.718Z,94443.05
2019-05-03T12:53:04.844Z,94424.75
2019-05-03T12:55:35.532Z,94429.66
2019-05-03T12:58:06.384Z,94428.03
2019-05-03T13:00:56.725Z,94426.36
2019-05-03T13:03:34.077Z,94412.16
2019-05-03T13:06:05.242Z,94412.20
2019-05-03T13:08:37.973Z,94408.83
2019-05-03T13:11:06.802Z,94398.84
2019-05-03T13:13:36.155Z,94401.42
2019-05-03T13:16:05.262Z,94411.81
2019-05-03T13:18:35.117Z,94407.94
2019-05-03T13:21:05.738Z,94398.20
2019-05-03T13:23:35.508Z,94404.41
2019-05-03T13:26:05.560Z,94400.41
2019-05-03T13:28:34.595Z,94391.66
2019-05-03T13:31:05.436Z,94390.70
2019-05-03T13:33:34.834Z,94387.95
2019-05-03T13:36:03.740Z,94394.52
2019-05-03T13:38:34.699Z,94390.23
2019-05-03T13:41:03.139Z,94389.00
2019-05-03T13:43:31.780Z,94391.06
2019-05-03T13:46:00.420Z,94391.36
2019-05-03T13:48:41.575Z,94387.79
2019-05-03T13:50:59.708Z,94386.13
2019-05-03T13:53:28.423Z,94381.07
2019-05-03T13:55:57.278Z,94380.16
2019-05-03T13:58:26.540Z,94372.64
2019-05-03T14:00:55.281Z,94380.66
2019-05-03T14:03:23.930Z,94370.10
2019-05-03T14:05:52.570Z,94370.38
2019-05-03T14:08:21.190Z,94375.17
2019-05-03T14:10:50.036Z,94371.40
2019-05-03T14:13:18.673Z,94367.16
2019-05-03T14:15:47.622Z,94362.92
2019-05-03T14:18:16.454Z,94363.34
2019-05-03T14:21:07.248Z,94364.41
2019-05-03T14:23:53.357Z,94368.17
2019-05-03T14:26:30.702Z,94361.30
2019-05-03T14:28:59.577Z,94360.50
2019-05-03T14:31:28.196Z,94355.66
2019-05-03T14:33:57.067Z,94357.15
2019-05-03T14:36:25.683Z,94355.52
2019-05-03T14:38:55.044Z,94361.45
2019-05-03T14:41:25.444Z,94367.36
2019-05-03T14:43:55.748Z,94364.66
2019-05-03T14:46:32.533Z,94364.81
2019-05-03T14:48:55.013Z,94376.66
2019-05-03T14:51:25.354Z,94368.06
2019-05-03T14:53:56.759Z,94361.18
2019-05-03T14:56:34.769Z,94363.19
2019-05-03T14:59:21.225Z,94373.36
2019-05-03T15:02:00.682Z,94359.59
2019-05-03T15:04:29.327Z,94355.38
2019-05-03T15:06:58.097Z,94358.95
2019-05-03T15:09:26.686Z,94348.83
2019-05-03T15:11:55.349Z,94343.12
2019-05-03T15:14:25.156Z,94338.45
2019-05-03T15:16:55.702Z,94344.09
2019-05-03T15:19:25.412Z,94344.25
2019-05-03T15:21:54.734Z,94354.30
2019-05-03T15:24:25.189Z,94341.88
2019-05-03T15:26:55.407Z,94344.08
2019-05-03T15:29:24.708Z,94346.58
2019-05-03T15:31:55.232Z,94337.73
2019-05-03T15:34:24.048Z,94334.95
2019-05-03T15:36:54.711Z,94334.42
2019-05-03T15:39:23.279Z,94336.56
2019-05-03T15:41:52.058Z,94336.04
2019-05-03T15:44:27.467Z,94333.41
2019-05-03T15:47:20.996Z,94338.09
2019-05-03T15:49:49.610Z,94337.41
2019-05-03T15:52:18.471Z,94344.50
2019-05-03T15:54:47.537Z,94328.72
2019-05-03T15:57:16.886Z,94331.64
2019-05-03T15:59:45.501Z,94322.69
2019-05-03T16:02:15.219Z,94329.45
2019-05-03T16:04:44.860Z,94324.61
2019-05-03T16:07:14.441Z,94333.34
2019-05-03T16:09:44.541Z,94327.72
2019-05-03T16:12:14.546Z,94324.49
2019-05-03T16:14:44.531Z,94329.09
2019-05-03T16:17:14.713Z,94322.69
2019-05-03T16:19:45.172Z,94310.42
2019-05-03T16:22:14.403Z,94320.15
2019-05-03T16:24:46.823Z,94322.50
2019-05-03T16:27:47.376Z,94322.88
2019-05-03T16:30:36.853Z,94314.11
2019-05-03T16:33:05.638Z,94319.29
2019-05-03T16:35:35.005Z,94324.00
2019-05-03T16:38:06.178Z,94316.61
2019-05-03T16:40:35.174Z,94314.37
2019-05-03T16:43:03.864Z,94317.55
2019-05-03T16:45:32.465Z,94322.82
2019-05-03T16:48:01.150Z,94317.53
2019-05-03T16:50:30.132Z,94317.70
2019-05-03T16:52:58.768Z,94311.19
2019-05-03T16:55:27.392Z,94320.48
2019-05-03T16:57:56.244Z,94314.67
2019-05-03T17:00:25.379Z,94314.10
2019-05-03T17:02:55.149Z,94316.91
2019-05-03T17:05:45.066Z,94317.33
2019-05-03T17:08:34.538Z,94312.60
2019-05-03T17:11:05.745Z,94318.58
2019-05-03T17:13:34.731Z,94317.02
2019-05-03T17:16:04.805Z,94312.39
2019-05-03T17:18:35.290Z,94314.33
2019-05-03T17:21:04.211Z,94302.27
2019-05-03T17:23:35.131Z,94298.39
2019-05-03T17:26:03.394Z,94296.75
2019-05-03T17:28:31.996Z,94291.04
2019-05-03T17:31:00.621Z,94294.77
2019-05-03T17:33:29.478Z,94294.34
2019-05-03T17:35:58.774Z,94296.19
2019-05-03T17:38:27.704Z,94299.22
2019-05-03T17:41:05.802Z,94299.91
2019-05-03T17:43:47.778Z,94293.97
2019-05-03T17:46:16.385Z,94293.59
2019-05-03T17:48:45.327Z,94293.44
2019-05-03T17:51:34.616Z,94290.58
2019-05-03T17:54:12.410Z,94287.52
2019-05-03T17:56:55.259Z,94296.91
2019-05-03T17:59:31.286Z,94296.91
2019-05-03T18:02:17.399Z,94287.39
2019-05-03T18:05:11.442Z,94295.35
2019-05-03T18:07:50.208Z,94297.63
2019-05-03T18:10:18.961Z,94298.44
2019-05-03T18:12:47.564Z,94304.39
2019-05-03T18:15:16.250Z,94304.39
2019-05-03T18:17:45.088Z,94305.69
2019-05-03T18:20:15.068Z,94295.92
2019-05-03T18:22:43.953Z,94294.09
2019-05-03T18:25:14.248Z,94294.09
2019-05-03T18:27:44.618Z,94293.28
2019-05-03T18:30:14.044Z,94295.03
2019-05-03T18:32:42.711Z,94291.13
2019-05-03T18:35:11.382Z,94293.00
2019-05-03T18:37:40.694Z,94291.88
2019-05-03T18:40:09.468Z,94295.04
2019-05-03T18:42:44.803Z,94291.88
2019-05-03T18:45:19.104Z,94299.94
2019-05-03T18:47:47.775Z,94297.96
2019-05-03T18:50:16.397Z,94297.96
2019-05-03T18:52:45.259Z,94297.81
2019-05-03T18:55:14.062Z,94295.23
2019-05-03T18:57:44.662Z,94295.23
2019-05-03T19:00:15.353Z,94307.09
2019-05-03T19:02:44.616Z,94307.30
2019-05-03T19:05:15.183Z,94306.58
2019-05-03T19:08:08.824Z,94306.07
2019-05-03T19:10:46.837Z,94306.07
2019-05-03T19:13:19.449Z,94308.97
2019-05-03T19:15:48.212Z,94304.48
2019-05-03T19:18:35.265Z,94307.31
2019-05-03T19:21:04.608Z,94303.26
2019-05-03T19:23:35.353Z,94301.66
2019-05-03T19:26:05.561Z,94304.11
2019-05-03T19:28:35.424Z,94312.18
2019-05-03T19:31:05.415Z,94301.62
2019-05-03T19:33:34.772Z,94299.34
2019-05-03T19:36:04.563Z,94307.17
2019-05-03T19:38:35.045Z,94303.09
2019-05-03T19:41:03.542Z,94303.70
2019-05-03T19:43:32.380Z,94303.31
2019-05-03T19:46:01.243Z,94305.49
2019-05-03T19:48:30.117Z,94296.06
2019-05-03T19:50:58.960Z,94297.97
2019-05-03T19:53:49.709Z,94297.91
2019-05-03T19:56:19.159Z,94295.01
2019-05-03T19:58:47.740Z,94291.75
2019-05-03T20:01:35.469Z,94294.27
2019-05-03T20:04:34.902Z,94295.94
2019-05-03T20:07:25.612Z,94286.09
2019-05-03T20:09:54.459Z,94289.56
2019-05-03T20:12:24.623Z,94286.48
2019-05-03T20:14:54.577Z,94281.92
2019-05-03T20:17:23.752Z,94283.14
2019-05-03T20:19:54.355Z,94284.55
2019-05-03T20:22:24.472Z,94278.17
2019-05-03T20:24:55.132Z,94280.56
2019-05-03T20:27:24.460Z,94275.98
2019-05-03T20:29:55.320Z,94278.44
2019-05-03T20:32:25.203Z,94272.39
2019-05-03T20:34:55.108Z,94274.00
2019-05-03T20:37:25.127Z,94272.42
2019-05-03T20:39:54.483Z,94273.77
2019-05-03T20:42:40.666Z,94265.95
2019-05-03T20:45:14.398Z,94268.55
2019-05-03T20:47:47.737Z,94262.06
2019-05-03T20:50:17.847Z,94262.06
2019-05-03T20:52:46.506Z,94260.86
2019-05-03T20:55:15.679Z,94254.37
2019-05-03T20:57:44.498Z,94256.42
2019-05-03T21:00:15.007Z,94257.32
2019-05-03T21:02:51.578Z,94248.53
2019-05-03T21:05:26.648Z,94260.91
2019-05-03T21:07:45.913Z,94258.80
2019-05-03T21:10:15.749Z,94248.95
2019-05-03T21:12:44.411Z,94252.98
2019-05-03T21:15:21.748Z,94256.40
2019-05-03T21:17:59.457Z,94251.00
2019-05-03T21:20:50.623Z,94253.56
2019-05-03T21:23:20.198Z,94253.68
2019-05-03T21:26:13.067Z,94244.84
2019-05-03T21:28:38.836Z,94239.22
2019-05-03T21:31:07.986Z,94233.09
2019-05-03T21:33:36.597Z,94237.53
2019-05-03T21:36:05.288Z,94236.88
2019-05-03T21:38:35.413Z,94234.33
2019-05-03T21:41:05.203Z,94237.85
2019-05-03T21:43:34.819Z,94231.47
2019-05-03T21:46:17.972Z,94233.16
2019-05-03T21:48:51.471Z,94235.53
2019-05-03T21:51:20.098Z,94233.98
2019-05-03T21:53:48.950Z,94233.13
2019-05-03T21:56:17.560Z,94228.89
2019-05-03T21:58:46.241Z,94229.75
2019-05-03T22:01:15.616Z,94226.04
2019-05-03T22:03:44.791Z,94219.22
2019-05-03T22:06:15.387Z,94207.97
2019-05-03T22:08:45.497Z,94214.08
2019-05-03T22:11:14.823Z,94213.17
2019-05-03T22:13:45.501Z,94213.11
2019-05-03T22:16:25.892Z,94211.56
2019-05-03T22:18:54.694Z,94212.30
2019-05-03T22:21:32.064Z,94209.28
2019-05-03T22:24:26.532Z,94199.81
2019-05-03T22:27:00.207Z,94204.73
2019-05-03T22:29:28.988Z,94203.84
2019-05-03T22:31:57.823Z,94194.57
2019-05-03T22:34:26.429Z,94201.31
2019-05-03T22:36:55.293Z,94198.64
2019-05-03T22:39:25.047Z,94200.00
2019-05-03T22:41:54.130Z,94198.47
2019-05-03T22:44:22.742Z,94190.16
2019-05-03T22:46:51.626Z,94187.98
2019-05-03T22:49:20.226Z,94183.00
2019-05-03T22:51:49.031Z,94185.44
2019-05-03T22:54:18.654Z,94181.79
2019-05-03T22:56:47.497Z,94186.52
2019-05-03T22:59:16.455Z,94178.30
2019-05-03T23:01:45.969Z,94175.48
2019-05-03T23:04:14.902Z,94170.81
2019-05-03T23:06:46.749Z,94170.03
2019-05-03T23:09:15.655Z,94171.98
2019-05-03T23:11:44.824Z,94175.95
2019-05-03T23:14:15.057Z,94166.67
2019-05-03T23:16:44.902Z,94160.02
2019-05-03T23:19:14.959Z,94164.45
2019-05-03T23:21:58.127Z,94156.68
2019-05-03T23:24:26.803Z,94155.87
2019-05-03T23:26:55.511Z,94151.62
2019-05-03T23:29:24.109Z,94148.05
2019-05-03T23:31:52.797Z,94142.71
2019-05-03T23:34:21.459Z,94142.82
2019-05-03T23:36:50.046Z,94144.13
2019-05-03T23:39:18.650Z,94142.52
2019-05-03T23:41:47.752Z,94143.22
2019-05-03T23:44:16.360Z,94133.91
2019-05-03T23:46:52.304Z,94133.19
2019-05-03T23:49:21.155Z,94131.98
2019-05-03T23:51:55.545Z,94132.64
2019-05-03T23:54:24.773Z,94127.23
2019-05-03T23:56:54.735Z,94129.70
2019-05-03T23:59:23.463Z,94132.31
